sensor_id;sensor_type;location;lat;lon;timestamp;temperature;humidity
26099;DHT22;13860;52.370;6.764;2023-04-03T00:00:58;5.60;72.50
26099;DHT22;13860;52.370;6.764;2023-04-03T00:04:02;5.50;72.40
26099;DHT22;13860;52.370;6.764;2023-04-03T00:07:08;5.50;73.10
26099;DHT22;13860;52.370;6.764;2023-04-03T00:10:13;5.50;72.50
26099;DHT22;13860;52.370;6.764;2023-04-03T00:13:22;5.50;72.50
26099;DHT22;13860;52.370;6.764;2023-04-03T00:16:26;5.40;72.50
26099;DHT22;13860;52.370;6.764;2023-04-03T00:19:32;5.40;72.50
26099;DHT22;13860;52.370;6.764;2023-04-03T00:22:36;5.40;72.50
26099;DHT22;13860;52.370;6.764;2023-04-03T00:25:42;5.30;72.50
26099;DHT22;13860;52.370;6.764;2023-04-03T00:28:49;5.30;72.50
26099;DHT22;13860;52.370;6.764;2023-04-03T00:31:55;5.30;72.50
26099;DHT22;13860;52.370;6.764;2023-04-03T00:34:59;5.30;72.60
26099;DHT22;13860;52.370;6.764;2023-04-03T00:38:05;5.30;72.60
26099;DHT22;13860;52.370;6.764;2023-04-03T00:41:09;5.20;72.50
26099;DHT22;13860;52.370;6.764;2023-04-03T00:44:21;5.20;72.60
26099;DHT22;13860;52.370;6.764;2023-04-03T00:47:25;5.20;72.60
26099;DHT22;13860;52.370;6.764;2023-04-03T00:50:31;5.20;72.60
26099;DHT22;13860;52.370;6.764;2023-04-03T00:53:56;5.20;72.60
26099;DHT22;13860;52.370;6.764;2023-04-03T00:57:04;5.10;72.60
26099;DHT22;13860;52.370;6.764;2023-04-03T01:00:12;5.10;72.60
26099;DHT22;13860;52.370;6.764;2023-04-03T01:03:21;5.10;72.60
26099;DHT22;13860;52.370;6.764;2023-04-03T01:06:26;5.10;72.60
26099;DHT22;13860;52.370;6.764;2023-04-03T01:09:39;5.10;72.60
26099;DHT22;13860;52.370;6.764;2023-04-03T01:12:44;5.00;72.60
26099;DHT22;13860;52.370;6.764;2023-04-03T01:15:52;5.00;72.60
26099;DHT22;13860;52.370;6.764;2023-04-03T01:18:57;5.00;72.70
26099;DHT22;13860;52.370;6.764;2023-04-03T01:22:05;4.90;72.70
26099;DHT22;13860;52.370;6.764;2023-04-03T01:25:18;4.90;72.60
26099;DHT22;13860;52.370;6.764;2023-04-03T01:28:24;4.90;72.70
26099;DHT22;13860;52.370;6.764;2023-04-03T01:31:31;4.90;72.70
26099;DHT22;13860;52.370;6.764;2023-04-03T01:34:41;4.90;72.70
26099;DHT22;13860;52.370;6.764;2023-04-03T01:37:45;4.90;72.70
26099;DHT22;13860;52.370;6.764;2023-04-03T01:40:51;4.80;72.60
26099;DHT22;13860;52.370;6.764;2023-04-03T01:43:55;4.80;72.70
26099;DHT22;13860;52.370;6.764;2023-04-03T01:47:01;4.80;72.70
26099;DHT22;13860;52.370;6.764;2023-04-03T01:50:08;4.80;72.70
26099;DHT22;13860;52.370;6.764;2023-04-03T01:53:14;4.80;72.70
26099;DHT22;13860;52.370;6.764;2023-04-03T01:56:18;4.70;72.60
26099;DHT22;13860;52.370;6.764;2023-04-03T01:59:25;4.70;72.70
26099;DHT22;13860;52.370;6.764;2023-04-03T02:02:29;4.70;72.60
26099;DHT22;13860;52.370;6.764;2023-04-03T02:05:37;4.70;72.70
26099;DHT22;13860;52.370;6.764;2023-04-03T02:08:41;4.60;72.60
26099;DHT22;13860;52.370;6.764;2023-04-03T02:11:47;4.60;72.70
26099;DHT22;13860;52.370;6.764;2023-04-03T02:14:51;4.60;72.70
26099;DHT22;13860;52.370;6.764;2023-04-03T02:17:57;4.50;72.70
26099;DHT22;13860;52.370;6.764;2023-04-03T02:21:03;4.50;72.70
26099;DHT22;13860;52.370;6.764;2023-04-03T02:24:09;4.50;72.70
26099;DHT22;13860;52.370;6.764;2023-04-03T02:27:13;4.50;72.80
26099;DHT22;13860;52.370;6.764;2023-04-03T02:30:19;4.50;72.90
26099;DHT22;13860;52.370;6.764;2023-04-03T02:33:23;4.40;72.70
26099;DHT22;13860;52.370;6.764;2023-04-03T02:36:32;4.40;72.70
26099;DHT22;13860;52.370;6.764;2023-04-03T02:39:39;4.40;72.70
26099;DHT22;13860;52.370;6.764;2023-04-03T02:42:45;4.30;72.70
26099;DHT22;13860;52.370;6.764;2023-04-03T02:45:49;4.30;72.70
26099;DHT22;13860;52.370;6.764;2023-04-03T02:48:55;4.30;72.80
26099;DHT22;13860;52.370;6.764;2023-04-03T02:52:01;4.20;72.80
26099;DHT22;13860;52.370;6.764;2023-04-03T02:55:07;4.20;72.80
26099;DHT22;13860;52.370;6.764;2023-04-03T02:58:11;4.20;72.90
26099;DHT22;13860;52.370;6.764;2023-04-03T03:01:17;4.10;72.80
26099;DHT22;13860;52.370;6.764;2023-04-03T03:04:21;4.10;72.90
26099;DHT22;13860;52.370;6.764;2023-04-03T03:07:29;4.10;72.80
26099;DHT22;13860;52.370;6.764;2023-04-03T03:10:33;4.10;72.90
26099;DHT22;13860;52.370;6.764;2023-04-03T03:13:39;4.00;72.80
26099;DHT22;13860;52.370;6.764;2023-04-03T03:16:43;4.00;72.90
26099;DHT22;13860;52.370;6.764;2023-04-03T03:19:49;3.90;72.80
26099;DHT22;13860;52.370;6.764;2023-04-03T03:22:55;3.90;72.80
26099;DHT22;13860;52.370;6.764;2023-04-03T03:26:02;3.90;72.90
26099;DHT22;13860;52.370;6.764;2023-04-03T03:29:08;3.80;72.90
26099;DHT22;13860;52.370;6.764;2023-04-03T03:32:14;3.80;72.90
26099;DHT22;13860;52.370;6.764;2023-04-03T03:35:18;3.80;72.90
26099;DHT22;13860;52.370;6.764;2023-04-03T03:38:26;3.70;72.90
26099;DHT22;13860;52.370;6.764;2023-04-03T03:41:31;3.70;73.00
26099;DHT22;13860;52.370;6.764;2023-04-03T03:44:37;3.70;73.00
26099;DHT22;13860;52.370;6.764;2023-04-03T03:47:41;3.60;72.90
26099;DHT22;13860;52.370;6.764;2023-04-03T03:50:49;3.60;73.00
26099;DHT22;13860;52.370;6.764;2023-04-03T03:53:59;3.60;73.00
26099;DHT22;13860;52.370;6.764;2023-04-03T03:57:05;3.60;73.00
26099;DHT22;13860;52.370;6.764;2023-04-03T04:00:11;3.60;73.00
26099;DHT22;13860;52.370;6.764;2023-04-03T04:03:23;3.60;73.00
26099;DHT22;13860;52.370;6.764;2023-04-03T04:06:27;3.60;73.00
26099;DHT22;13860;52.370;6.764;2023-04-03T04:09:38;3.50;73.00
26099;DHT22;13860;52.370;6.764;2023-04-03T04:12:43;3.50;73.00
26099;DHT22;13860;52.370;6.764;2023-04-03T04:15:50;3.50;73.00
26099;DHT22;13860;52.370;6.764;2023-04-03T04:18:54;3.40;72.90
26099;DHT22;13860;52.370;6.764;2023-04-03T04:22:01;3.40;73.00
26099;DHT22;13860;52.370;6.764;2023-04-03T04:25:09;3.40;72.90
26099;DHT22;13860;52.370;6.764;2023-04-03T04:28:16;3.30;73.00
26099;DHT22;13860;52.370;6.764;2023-04-03T04:31:22;3.30;73.00
26099;DHT22;13860;52.370;6.764;2023-04-03T04:34:29;3.30;73.00
26099;DHT22;13860;52.370;6.764;2023-04-03T04:37:34;3.20;73.00
26099;DHT22;13860;52.370;6.764;2023-04-03T04:40:42;3.20;73.00
26099;DHT22;13860;52.370;6.764;2023-04-03T04:43:47;3.10;73.00
26099;DHT22;13860;52.370;6.764;2023-04-03T04:46:53;3.10;73.00
26099;DHT22;13860;52.370;6.764;2023-04-03T04:49:57;3.10;73.00
26099;DHT22;13860;52.370;6.764;2023-04-03T04:53:03;3.10;73.10
26099;DHT22;13860;52.370;6.764;2023-04-03T04:56:09;3.00;73.00
26099;DHT22;13860;52.370;6.764;2023-04-03T04:59:16;3.00;73.10
26099;DHT22;13860;52.370;6.764;2023-04-03T05:02:23;2.90;73.00
26099;DHT22;13860;52.370;6.764;2023-04-03T05:05:30;2.90;73.00
26099;DHT22;13860;52.370;6.764;2023-04-03T05:08:34;2.90;73.10
26099;DHT22;13860;52.370;6.764;2023-04-03T05:11:42;2.90;73.10
26099;DHT22;13860;52.370;6.764;2023-04-03T05:14:49;2.90;73.10
26099;DHT22;13860;52.370;6.764;2023-04-03T05:17:55;2.80;73.10
26099;DHT22;13860;52.370;6.764;2023-04-03T05:20:59;2.80;73.10
26099;DHT22;13860;52.370;6.764;2023-04-03T05:24:05;2.80;73.10
26099;DHT22;13860;52.370;6.764;2023-04-03T05:27:15;2.70;73.10
26099;DHT22;13860;52.370;6.764;2023-04-03T05:30:26;2.70;73.10
26099;DHT22;13860;52.370;6.764;2023-04-03T05:33:30;2.70;73.10
26099;DHT22;13860;52.370;6.764;2023-04-03T05:36:37;2.70;73.10
26099;DHT22;13860;52.370;6.764;2023-04-03T05:39:43;2.60;73.10
26099;DHT22;13860;52.370;6.764;2023-04-03T05:42:51;2.70;73.20
26099;DHT22;13860;52.370;6.764;2023-04-03T05:45:58;2.60;73.20
26099;DHT22;13860;52.370;6.764;2023-04-03T05:49:05;2.60;73.20
26099;DHT22;13860;52.370;6.764;2023-04-03T05:52:12;2.60;73.20
26099;DHT22;13860;52.370;6.764;2023-04-03T05:55:23;2.60;73.30
26099;DHT22;13860;52.370;6.764;2023-04-03T05:58:29;2.60;73.20
26099;DHT22;13860;52.370;6.764;2023-04-03T06:01:35;2.60;73.30
26099;DHT22;13860;52.370;6.764;2023-04-03T06:04:39;2.50;73.20
26099;DHT22;13860;52.370;6.764;2023-04-03T06:07:45;2.60;73.30
26099;DHT22;13860;52.370;6.764;2023-04-03T06:10:54;2.60;73.40
26099;DHT22;13860;52.370;6.764;2023-04-03T06:14:02;2.60;73.30
26099;DHT22;13860;52.370;6.764;2023-04-03T06:17:06;2.60;73.40
26099;DHT22;13860;52.370;6.764;2023-04-03T06:20:12;2.70;73.40
26099;DHT22;13860;52.370;6.764;2023-04-03T06:23:16;2.70;73.40
26099;DHT22;13860;52.370;6.764;2023-04-03T06:26:22;2.80;73.50
26099;DHT22;13860;52.370;6.764;2023-04-03T06:29:28;2.80;73.40
26099;DHT22;13860;52.370;6.764;2023-04-03T06:32:34;2.90;73.60
26099;DHT22;13860;52.370;6.764;2023-04-03T06:35:38;3.00;73.60
26099;DHT22;13860;52.370;6.764;2023-04-03T06:38:44;3.10;73.60
26099;DHT22;13860;52.370;6.764;2023-04-03T06:41:48;3.10;73.60
26099;DHT22;13860;52.370;6.764;2023-04-03T06:45:04;3.20;73.60
26099;DHT22;13860;52.370;6.764;2023-04-03T06:48:09;3.30;73.60
26099;DHT22;13860;52.370;6.764;2023-04-03T06:51:17;3.40;73.70
26099;DHT22;13860;52.370;6.764;2023-04-03T06:54:22;3.50;73.70
26099;DHT22;13860;52.370;6.764;2023-04-03T06:57:29;3.60;73.60
26099;DHT22;13860;52.370;6.764;2023-04-03T07:00:34;3.70;73.60
26099;DHT22;13860;52.370;6.764;2023-04-03T07:03:40;3.80;73.60
26099;DHT22;13860;52.370;6.764;2023-04-03T07:06:44;3.90;73.60
26099;DHT22;13860;52.370;6.764;2023-04-03T07:09:50;4.00;73.60
26099;DHT22;13860;52.370;6.764;2023-04-03T07:12:54;4.10;73.70
26099;DHT22;13860;52.370;6.764;2023-04-03T07:16:02;4.20;73.60
26099;DHT22;13860;52.370;6.764;2023-04-03T07:19:07;4.30;73.60
26099;DHT22;13860;52.370;6.764;2023-04-03T07:22:13;4.40;73.60
26099;DHT22;13860;52.370;6.764;2023-04-03T07:25:17;4.50;73.60
26099;DHT22;13860;52.370;6.764;2023-04-03T07:28:24;4.60;73.60
26099;DHT22;13860;52.370;6.764;2023-04-03T07:31:29;4.70;73.60
26099;DHT22;13860;52.370;6.764;2023-04-03T07:34:37;4.70;73.50
26099;DHT22;13860;52.370;6.764;2023-04-03T07:37:41;4.80;73.50
26099;DHT22;13860;52.370;6.764;2023-04-03T07:40:47;4.90;73.50
26099;DHT22;13860;52.370;6.764;2023-04-03T07:43:52;5.00;73.60
26099;DHT22;13860;52.370;6.764;2023-04-03T07:47:00;5.10;73.50
26099;DHT22;13860;52.370;6.764;2023-04-03T07:50:04;5.20;73.50
26099;DHT22;13860;52.370;6.764;2023-04-03T07:53:10;5.30;73.50
26099;DHT22;13860;52.370;6.764;2023-04-03T07:56:14;5.40;73.60
26099;DHT22;13860;52.370;6.764;2023-04-03T07:59:20;5.50;73.60
26099;DHT22;13860;52.370;6.764;2023-04-03T08:02:26;5.70;73.60
26099;DHT22;13860;52.370;6.764;2023-04-03T08:05:35;5.80;73.50
26099;DHT22;13860;52.370;6.764;2023-04-03T08:08:40;5.90;73.50
26099;DHT22;13860;52.370;6.764;2023-04-03T08:11:46;6.10;73.50
26099;DHT22;13860;52.370;6.764;2023-04-03T08:14:50;6.30;73.50
26099;DHT22;13860;52.370;6.764;2023-04-03T08:17:58;6.40;73.40
26099;DHT22;13860;52.370;6.764;2023-04-03T08:21:05;6.60;73.40
26099;DHT22;13860;52.370;6.764;2023-04-03T08:24:11;6.70;73.30
26099;DHT22;13860;52.370;6.764;2023-04-03T08:27:15;6.90;73.30
26099;DHT22;13860;52.370;6.764;2023-04-03T08:30:21;7.10;73.20
26099;DHT22;13860;52.370;6.764;2023-04-03T08:33:27;7.30;73.20
26099;DHT22;13860;52.370;6.764;2023-04-03T08:36:32;7.40;73.10
26099;DHT22;13860;52.370;6.764;2023-04-03T08:39:36;7.60;73.00
26099;DHT22;13860;52.370;6.764;2023-04-03T08:42:45;7.70;72.90
26099;DHT22;13860;52.370;6.764;2023-04-03T08:45:53;7.90;72.90
26099;DHT22;13860;52.370;6.764;2023-04-03T08:49:02;8.10;72.90
26099;DHT22;13860;52.370;6.764;2023-04-03T08:52:09;8.20;72.70
26099;DHT22;13860;52.370;6.764;2023-04-03T08:55:21;8.30;72.60
26099;DHT22;13860;52.370;6.764;2023-04-03T08:58:26;8.50;72.70
26099;DHT22;13860;52.370;6.764;2023-04-03T09:01:34;8.70;72.60
26099;DHT22;13860;52.370;6.764;2023-04-03T09:04:41;8.80;72.50
26099;DHT22;13860;52.370;6.764;2023-04-03T09:07:47;9.00;72.40
26099;DHT22;13860;52.370;6.764;2023-04-03T09:10:58;9.20;72.40
26099;DHT22;13860;52.370;6.764;2023-04-03T09:14:07;9.30;72.30
26099;DHT22;13860;52.370;6.764;2023-04-03T09:17:16;9.50;72.20
26099;DHT22;13860;52.370;6.764;2023-04-03T09:20:30;9.60;72.20
26099;DHT22;13860;52.370;6.764;2023-04-03T09:23:41;9.70;72.10
26099;DHT22;13860;52.370;6.764;2023-04-03T09:26:51;9.90;72.00
26099;DHT22;13860;52.370;6.764;2023-04-03T09:29:57;10.00;71.90
26099;DHT22;13860;52.370;6.764;2023-04-03T09:33:04;10.10;71.90
26099;DHT22;13860;52.370;6.764;2023-04-03T09:36:10;10.20;71.80
26099;DHT22;13860;52.370;6.764;2023-04-03T09:39:17;10.40;71.70
26099;DHT22;13860;52.370;6.764;2023-04-03T09:42:22;10.50;71.70
26099;DHT22;13860;52.370;6.764;2023-04-03T09:45:30;10.60;71.60
26099;DHT22;13860;52.370;6.764;2023-04-03T09:48:34;10.80;71.60
26099;DHT22;13860;52.370;6.764;2023-04-03T09:51:42;10.90;71.50
26099;DHT22;13860;52.370;6.764;2023-04-03T09:54:46;11.10;71.50
26099;DHT22;13860;52.370;6.764;2023-04-03T09:57:52;11.20;71.30
26099;DHT22;13860;52.370;6.764;2023-04-03T10:00:57;11.30;71.30
26099;DHT22;13860;52.370;6.764;2023-04-03T10:04:05;11.40;71.20
26099;DHT22;13860;52.370;6.764;2023-04-03T10:10:32;11.60;71.10
26099;DHT22;13860;52.370;6.764;2023-04-03T10:13:49;11.60;71.00
26099;DHT22;13860;52.370;6.764;2023-04-03T10:16:57;11.70;70.90
26099;DHT22;13860;52.370;6.764;2023-04-03T10:20:05;11.80;70.90
26099;DHT22;13860;52.370;6.764;2023-04-03T10:23:15;11.90;70.80
26099;DHT22;13860;52.370;6.764;2023-04-03T10:26:26;12.00;70.70
26099;DHT22;13860;52.370;6.764;2023-04-03T10:29:36;12.10;70.70
26099;DHT22;13860;52.370;6.764;2023-04-03T10:32:44;12.10;70.50
26099;DHT22;13860;52.370;6.764;2023-04-03T10:35:57;12.10;70.40
26099;DHT22;13860;52.370;6.764;2023-04-03T10:39:06;12.20;70.40
26099;DHT22;13860;52.370;6.764;2023-04-03T10:42:17;12.20;70.30
26099;DHT22;13860;52.370;6.764;2023-04-03T10:45:24;12.20;70.30
26099;DHT22;13860;52.370;6.764;2023-04-03T10:48:39;12.20;70.10
26099;DHT22;13860;52.370;6.764;2023-04-03T10:51:45;12.30;70.00
26099;DHT22;13860;52.370;6.764;2023-04-03T10:54:54;12.20;69.90
26099;DHT22;13860;52.370;6.764;2023-04-03T10:58:02;12.20;69.70
26099;DHT22;13860;52.370;6.764;2023-04-03T11:01:08;12.20;69.80
26099;DHT22;13860;52.370;6.764;2023-04-03T11:04:13;12.20;69.80
26099;DHT22;13860;52.370;6.764;2023-04-03T11:07:21;12.20;69.80
26099;DHT22;13860;52.370;6.764;2023-04-03T11:10:35;12.20;69.80
26099;DHT22;13860;52.370;6.764;2023-04-03T11:13:44;12.20;69.70
26099;DHT22;13860;52.370;6.764;2023-04-03T11:16:52;12.10;69.50
26099;DHT22;13860;52.370;6.764;2023-04-03T11:20:02;12.10;69.40
26099;DHT22;13860;52.370;6.764;2023-04-03T11:23:11;12.10;69.50
26099;DHT22;13860;52.370;6.764;2023-04-03T11:26:19;12.10;69.60
26099;DHT22;13860;52.370;6.764;2023-04-03T11:29:27;12.10;69.50
26099;DHT22;13860;52.370;6.764;2023-04-03T11:32:48;12.10;69.40
26099;DHT22;13860;52.370;6.764;2023-04-03T11:35:56;12.10;69.40
26099;DHT22;13860;52.370;6.764;2023-04-03T11:39:07;12.20;69.50
26099;DHT22;13860;52.370;6.764;2023-04-03T11:42:14;12.20;69.50
26099;DHT22;13860;52.370;6.764;2023-04-03T11:45:27;12.20;69.30
26099;DHT22;13860;52.370;6.764;2023-04-03T11:48:43;12.30;69.20
26099;DHT22;13860;52.370;6.764;2023-04-03T11:51:50;12.20;68.90
26099;DHT22;13860;52.370;6.764;2023-04-03T11:54:54;12.20;69.00
26099;DHT22;13860;52.370;6.764;2023-04-03T11:58:09;12.20;69.00
26099;DHT22;13860;52.370;6.764;2023-04-03T12:04:38;12.10;68.80
26099;DHT22;13860;52.370;6.764;2023-04-03T12:07:42;12.00;68.70
26099;DHT22;13860;52.370;6.764;2023-04-03T12:14:12;11.90;68.70
26099;DHT22;13860;52.370;6.764;2023-04-03T12:17:20;11.90;68.80
26099;DHT22;13860;52.370;6.764;2023-04-03T12:23:59;11.80;68.60
26099;DHT22;13860;52.370;6.764;2023-04-03T12:30:29;11.70;68.50
26099;DHT22;13860;52.370;6.764;2023-04-03T12:33:36;11.60;68.40
26099;DHT22;13860;52.370;6.764;2023-04-03T12:36:50;11.60;68.40
26099;DHT22;13860;52.370;6.764;2023-04-03T12:40:06;11.60;68.40
26099;DHT22;13860;52.370;6.764;2023-04-03T12:43:17;11.60;68.40
26099;DHT22;13860;52.370;6.764;2023-04-03T12:46:28;11.60;68.50
26099;DHT22;13860;52.370;6.764;2023-04-03T12:49:41;11.60;68.50
26099;DHT22;13860;52.370;6.764;2023-04-03T12:52:47;11.60;68.40
26099;DHT22;13860;52.370;6.764;2023-04-03T12:55:57;11.60;68.30
26099;DHT22;13860;52.370;6.764;2023-04-03T12:59:22;11.60;68.30
26099;DHT22;13860;52.370;6.764;2023-04-03T13:02:29;11.60;68.30
26099;DHT22;13860;52.370;6.764;2023-04-03T13:05:35;11.60;68.30
26099;DHT22;13860;52.370;6.764;2023-04-03T13:08:47;11.60;68.20
26099;DHT22;13860;52.370;6.764;2023-04-03T13:11:54;11.60;68.20
26099;DHT22;13860;52.370;6.764;2023-04-03T13:15:11;11.60;68.10
26099;DHT22;13860;52.370;6.764;2023-04-03T13:18:26;11.60;68.10
26099;DHT22;13860;52.370;6.764;2023-04-03T13:21:32;11.60;68.10
26099;DHT22;13860;52.370;6.764;2023-04-03T13:24:37;11.50;68.10
26099;DHT22;13860;52.370;6.764;2023-04-03T13:27:45;11.50;68.10
26099;DHT22;13860;52.370;6.764;2023-04-03T13:31:00;11.50;68.10
26099;DHT22;13860;52.370;6.764;2023-04-03T13:34:10;11.40;68.00
26099;DHT22;13860;52.370;6.764;2023-04-03T13:37:22;11.40;68.00
26099;DHT22;13860;52.370;6.764;2023-04-03T13:40:28;11.50;68.00
26099;DHT22;13860;52.370;6.764;2023-04-03T13:43:50;11.50;68.00
26099;DHT22;13860;52.370;6.764;2023-04-03T13:47:14;11.40;67.90
26099;DHT22;13860;52.370;6.764;2023-04-03T13:50:19;11.40;67.80
26099;DHT22;13860;52.370;6.764;2023-04-03T13:53:26;11.50;67.90
26099;DHT22;13860;52.370;6.764;2023-04-03T13:56:31;11.50;67.90
26099;DHT22;13860;52.370;6.764;2023-04-03T13:59:41;11.50;67.80
26099;DHT22;13860;52.370;6.764;2023-04-03T14:02:47;11.50;67.80
26099;DHT22;13860;52.370;6.764;2023-04-03T14:05:53;11.50;67.70
26099;DHT22;13860;52.370;6.764;2023-04-03T14:08:57;11.50;67.70
26099;DHT22;13860;52.370;6.764;2023-04-03T14:12:05;11.50;67.70
26099;DHT22;13860;52.370;6.764;2023-04-03T14:15:22;11.50;67.60
26099;DHT22;13860;52.370;6.764;2023-04-03T14:18:29;11.50;67.60
26099;DHT22;13860;52.370;6.764;2023-04-03T14:21:33;11.50;67.50
26099;DHT22;13860;52.370;6.764;2023-04-03T14:24:39;11.40;67.40
26099;DHT22;13860;52.370;6.764;2023-04-03T14:27:45;11.40;67.40
26099;DHT22;13860;52.370;6.764;2023-04-03T14:30:53;11.40;67.40
26099;DHT22;13860;52.370;6.764;2023-04-03T14:33:57;11.40;67.40
26099;DHT22;13860;52.370;6.764;2023-04-03T14:37:04;11.40;67.30
26099;DHT22;13860;52.370;6.764;2023-04-03T14:40:11;11.30;67.30
26099;DHT22;13860;52.370;6.764;2023-04-03T14:43:18;11.30;67.30
26099;DHT22;13860;52.370;6.764;2023-04-03T14:46:25;11.30;67.30
26099;DHT22;13860;52.370;6.764;2023-04-03T14:49:46;11.30;67.20
26099;DHT22;13860;52.370;6.764;2023-04-03T14:52:51;11.20;67.20
26099;DHT22;13860;52.370;6.764;2023-04-03T14:55:58;11.20;67.20
26099;DHT22;13860;52.370;6.764;2023-04-03T14:59:01;11.20;67.20
26099;DHT22;13860;52.370;6.764;2023-04-03T15:02:13;11.10;67.20
26099;DHT22;13860;52.370;6.764;2023-04-03T15:05:24;11.10;67.20
26099;DHT22;13860;52.370;6.764;2023-04-03T15:08:30;11.10;67.10
26099;DHT22;13860;52.370;6.764;2023-04-03T15:11:34;11.10;67.10
26099;DHT22;13860;52.370;6.764;2023-04-03T15:14:40;11.00;67.10
26099;DHT22;13860;52.370;6.764;2023-04-03T15:18:00;11.00;67.10
26099;DHT22;13860;52.370;6.764;2023-04-03T15:21:06;10.90;67.00
26099;DHT22;13860;52.370;6.764;2023-04-03T15:24:10;10.90;67.00
26099;DHT22;13860;52.370;6.764;2023-04-03T15:27:16;10.90;67.00
26099;DHT22;13860;52.370;6.764;2023-04-03T15:30:20;10.90;67.00
26099;DHT22;13860;52.370;6.764;2023-04-03T15:33:28;10.90;67.60
26099;DHT22;13860;52.370;6.764;2023-04-03T15:36:32;10.90;66.90
26099;DHT22;13860;52.370;6.764;2023-04-03T15:39:38;10.90;66.90
26099;DHT22;13860;52.370;6.764;2023-04-03T15:42:42;10.90;66.90
26099;DHT22;13860;52.370;6.764;2023-04-03T15:45:49;10.80;66.90
26099;DHT22;13860;52.370;6.764;2023-04-03T15:48:58;10.80;66.90
26099;DHT22;13860;52.370;6.764;2023-04-03T15:52:04;10.80;66.80
26099;DHT22;13860;52.370;6.764;2023-04-03T15:55:08;10.80;66.80
26099;DHT22;13860;52.370;6.764;2023-04-03T15:58:15;10.80;66.90
26099;DHT22;13860;52.370;6.764;2023-04-03T16:01:37;10.70;66.80
26099;DHT22;13860;52.370;6.764;2023-04-03T16:04:46;10.70;66.80
26099;DHT22;13860;52.370;6.764;2023-04-03T16:07:49;10.70;66.70
26099;DHT22;13860;52.370;6.764;2023-04-03T16:10:55;10.70;66.70
26099;DHT22;13860;52.370;6.764;2023-04-03T16:13:59;10.70;66.70
26099;DHT22;13860;52.370;6.764;2023-04-03T16:17:05;10.60;67.30
26099;DHT22;13860;52.370;6.764;2023-04-03T16:20:11;10.70;66.70
26099;DHT22;13860;52.370;6.764;2023-04-03T16:23:18;10.60;66.60
26099;DHT22;13860;52.370;6.764;2023-04-03T16:26:22;10.60;67.20
26099;DHT22;13860;52.370;6.764;2023-04-03T16:29:28;10.60;66.60
26099;DHT22;13860;52.370;6.764;2023-04-03T16:32:32;10.60;66.60
26099;DHT22;13860;52.370;6.764;2023-04-03T16:35:40;10.50;66.50
26099;DHT22;13860;52.370;6.764;2023-04-03T16:38:45;10.50;66.50
26099;DHT22;13860;52.370;6.764;2023-04-03T16:41:51;10.40;66.40
26099;DHT22;13860;52.370;6.764;2023-04-03T16:44:55;10.40;66.50
26099;DHT22;13860;52.370;6.764;2023-04-03T16:48:02;10.40;66.50
26099;DHT22;13860;52.370;6.764;2023-04-03T16:51:08;10.40;66.50
26099;DHT22;13860;52.370;6.764;2023-04-03T16:54:14;10.40;66.50
26099;DHT22;13860;52.370;6.764;2023-04-03T16:57:18;10.30;66.40
26099;DHT22;13860;52.370;6.764;2023-04-03T17:00:24;10.30;66.40
26099;DHT22;13860;52.370;6.764;2023-04-03T17:03:28;10.20;66.40
26099;DHT22;13860;52.370;6.764;2023-04-03T17:06:36;10.20;66.40
26099;DHT22;13860;52.370;6.764;2023-04-03T17:09:40;10.20;66.40
26099;DHT22;13860;52.370;6.764;2023-04-03T17:12:46;10.20;66.30
26099;DHT22;13860;52.370;6.764;2023-04-03T17:15:50;10.10;66.30
26099;DHT22;13860;52.370;6.764;2023-04-03T17:18:56;10.00;66.20
26099;DHT22;13860;52.370;6.764;2023-04-03T17:22:03;10.00;66.20
26099;DHT22;13860;52.370;6.764;2023-04-03T17:25:09;9.90;66.30
26099;DHT22;13860;52.370;6.764;2023-04-03T17:28:14;9.90;66.30
26099;DHT22;13860;52.370;6.764;2023-04-03T17:31:20;9.80;66.20
26099;DHT22;13860;52.370;6.764;2023-04-03T17:34:24;9.80;66.20
26099;DHT22;13860;52.370;6.764;2023-04-03T17:37:32;9.80;66.20
26099;DHT22;13860;52.370;6.764;2023-04-03T17:40:35;9.70;66.20
26099;DHT22;13860;52.370;6.764;2023-04-03T17:43:41;9.70;66.20
26099;DHT22;13860;52.370;6.764;2023-04-03T17:46:45;9.70;66.20
26099;DHT22;13860;52.370;6.764;2023-04-03T17:49:51;9.60;66.10
26099;DHT22;13860;52.370;6.764;2023-04-03T17:52:57;9.60;66.10
26099;DHT22;13860;52.370;6.764;2023-04-03T17:56:06;9.60;66.10
26099;DHT22;13860;52.370;6.764;2023-04-03T17:59:10;9.50;66.10
26099;DHT22;13860;52.370;6.764;2023-04-03T18:02:19;9.50;66.10
26099;DHT22;13860;52.370;6.764;2023-04-03T18:05:25;9.50;66.10
26099;DHT22;13860;52.370;6.764;2023-04-03T18:08:34;9.40;66.00
26099;DHT22;13860;52.370;6.764;2023-04-03T18:11:38;9.30;66.00
26099;DHT22;13860;52.370;6.764;2023-04-03T18:14:45;9.30;66.00
26099;DHT22;13860;52.370;6.764;2023-04-03T18:17:49;9.30;66.00
26099;DHT22;13860;52.370;6.764;2023-04-03T18:20:59;9.20;65.90
26099;DHT22;13860;52.370;6.764;2023-04-03T18:24:05;9.20;65.90
26099;DHT22;13860;52.370;6.764;2023-04-03T18:27:12;9.20;65.90
26099;DHT22;13860;52.370;6.764;2023-04-03T18:30:16;9.10;65.90
26099;DHT22;13860;52.370;6.764;2023-04-03T18:33:22;9.00;65.80
26099;DHT22;13860;52.370;6.764;2023-04-03T18:36:26;9.00;65.90
26099;DHT22;13860;52.370;6.764;2023-04-03T18:39:34;9.00;65.90
26099;DHT22;13860;52.370;6.764;2023-04-03T18:42:38;8.90;65.90
26099;DHT22;13860;52.370;6.764;2023-04-03T18:45:45;8.90;65.90
26099;DHT22;13860;52.370;6.764;2023-04-03T18:48:49;8.80;65.80
26099;DHT22;13860;52.370;6.764;2023-04-03T18:51:56;8.80;66.20
26099;DHT22;13860;52.370;6.764;2023-04-03T18:55:02;8.70;65.80
26099;DHT22;13860;52.370;6.764;2023-04-03T18:58:08;8.70;65.90
26099;DHT22;13860;52.370;6.764;2023-04-03T19:01:12;8.60;65.90
26099;DHT22;13860;52.370;6.764;2023-04-03T19:04:19;8.60;65.80
26099;DHT22;13860;52.370;6.764;2023-04-03T19:07:23;8.50;65.80
26099;DHT22;13860;52.370;6.764;2023-04-03T19:10:31;8.50;65.90
26099;DHT22;13860;52.370;6.764;2023-04-03T19:13:35;8.40;65.80
26099;DHT22;13860;52.370;6.764;2023-04-03T19:17:03;8.40;65.90
26099;DHT22;13860;52.370;6.764;2023-04-03T19:20:09;8.30;65.80
26099;DHT22;13860;52.370;6.764;2023-04-03T19:23:15;8.20;65.80
26099;DHT22;13860;52.370;6.764;2023-04-03T19:26:22;8.20;65.80
26099;DHT22;13860;52.370;6.764;2023-04-03T19:29:28;8.10;65.80
26099;DHT22;13860;52.370;6.764;2023-04-03T19:32:32;8.10;65.90
26099;DHT22;13860;52.370;6.764;2023-04-03T19:35:38;8.00;65.80
26099;DHT22;13860;52.370;6.764;2023-04-03T19:38:43;7.90;65.80
26099;DHT22;13860;52.370;6.764;2023-04-03T19:41:51;7.90;65.90
26099;DHT22;13860;52.370;6.764;2023-04-03T19:44:55;7.80;65.80
26099;DHT22;13860;52.370;6.764;2023-04-03T19:48:02;7.70;65.80
26099;DHT22;13860;52.370;6.764;2023-04-03T19:51:09;7.70;65.90
26099;DHT22;13860;52.370;6.764;2023-04-03T19:54:15;7.60;65.90
26099;DHT22;13860;52.370;6.764;2023-04-03T19:57:20;7.60;65.90
26099;DHT22;13860;52.370;6.764;2023-04-03T20:00:27;7.50;65.90
26099;DHT22;13860;52.370;6.764;2023-04-03T20:03:31;7.50;65.90
26099;DHT22;13860;52.370;6.764;2023-04-03T20:06:38;7.40;65.90
26099;DHT22;13860;52.370;6.764;2023-04-03T20:09:42;7.40;65.90